Time;durP1;ratioP1;P1;durP2;ratioP2;P2;SDS_P1;SDS_P2;PMS_P1;PMS_P2;Temp;Humidity;BMP_temperature;BMP_pressure;BME280_temperature;BME280_humidity;BME280_pressure;Samples;Min_cycle;Max_cycle;Signal;HPM_P1;HPM_P2
2022/07/03 00:01:01;;;;;;;;;;;;;;;;;;5034595;28;19959;-22
2022/07/03 00:03:27;;;;;;;;;;;;;;;;;;5034351;28;20348;-22
2022/07/03 00:05:53;;;;;;;;;;;;;;;;;;5034527;28;19917;-22
2022/07/03 00:08:19;;;;;;;;;;;;;;;;;;5034536;28;19920;-25
2022/07/03 00:10:45;;;;;;;;;;;;;;;;;;5037594;28;19913;-22
2022/07/03 00:13:11;;;;;;;;;;;;;;;;;;5037083;28;19921;-22
2022/07/03 00:15:38;;;;;;;;;;;;;;;;;;5038694;28;19966;-22
2022/07/03 00:18:04;;;;;;;;;;;;;;;;;;5038759;28;20348;-22
2022/07/03 00:20:30;;;;;;;;;;;;;;;;;;5038022;28;19913;-22
2022/07/03 00:22:56;;;;;;;;;;;;;;;;;;5037800;28;20256;-23
2022/07/03 00:25:22;;;;;;;;;;;;;;;;;;5037888;28;19996;-22
2022/07/03 00:27:48;;;;;;;;;;;;;;;;;;5038254;28;19909;-22
2022/07/03 00:30:14;;;;;;;;;;;;;;;;;;5038691;28;19913;-25
2022/07/03 00:32:40;;;;;;;;;;;;;;;;;;5036848;28;20230;-22
2022/07/03 00:35:06;;;;;;;;;;;;;;;;;;5037936;28;19917;-23
2022/07/03 00:37:32;;;;;;;;;;;;;;;;;;5037700;28;20352;-22
2022/07/03 00:39:58;;;;;;;;;;;;;;;;;;5037640;28;20366;-22
2022/07/03 00:42:24;;;;;;;;;;;;;;;;;;5037780;28;19909;-22
2022/07/03 00:44:50;;;;;;;;;;;;;;;;;;5037573;28;19917;-22
2022/07/03 00:47:16;;;;;;;;;;;;;;;;;;5037877;28;19948;-22
2022/07/03 00:49:42;;;;;;;;;;;;;;;;;;5037823;28;19917;-23
2022/07/03 00:52:08;;;;;;;;;;;;;;;;;;5037324;28;19996;-22
2022/07/03 00:54:34;;;;;;;;;;;;;;;;;;5037227;28;19983;-22
2022/07/03 00:57:00;;;;;;;;;;;;;;;;;;5037664;28;19909;-22
2022/07/03 00:59:26;;;;;;;;;;;;;;;;;;5037612;28;20375;-23
2022/07/03 01:01:52;;;;;;;;;;;;;;;;;;5037288;28;19956;-22
2022/07/03 01:04:18;;;;;;;;;;;;;;;;;;5037201;28;19917;-23
2022/07/03 01:06:44;;;;;;;;;;;;;;;;;;5037237;28;19913;-23
2022/07/03 01:09:10;;;;;;;;;;;;;;;;;;5037274;28;20318;-22
2022/07/03 01:11:36;;;;;;;;;;;;;;;;;;5037211;28;20408;-22
2022/07/03 01:14:02;;;;;;;;;;;;;;;;;;5036967;28;20343;-23
2022/07/03 01:16:28;;;;;;;;;;;;;;;;;;5037118;28;19909;-22
2022/07/03 01:18:54;;;;;;;;;;;;;;;;;;5037307;28;20332;-22
2022/07/03 01:21:20;;;;;;;;;;;;;;;;;;5036221;28;19961;-22
2022/07/03 01:23:46;;;;;;;;;;;;;;;;;;5036868;28;20011;-23
2022/07/03 01:26:12;;;;;;;;;;;;;;;;;;5037128;28;19928;-23
2022/07/03 01:28:38;;;;;;;;;;;;;;;;;;5037242;28;19913;-22
2022/07/03 01:31:04;;;;;;;;;;;;;;;;;;5036663;28;19968;-22
2022/07/03 01:33:30;;;;;;;;;;;;;;;;;;5036843;28;19963;-23
2022/07/03 01:35:56;;;;;;;;;;;;;;;;;;5036963;28;20339;-22
2022/07/03 01:38:22;;;;;;;;;;;;;;;;;;5036633;28;19913;-23
2022/07/03 01:40:48;;;;;;;;;;;;;;;;;;5036604;28;20034;-22
2022/07/03 01:43:14;;;;;;;;;;;;;;;;;;5036479;28;20375;-22
2022/07/03 01:45:40;;;;;;;;;;;;;;;;;;5037051;28;19913;-23
2022/07/03 01:48:06;;;;;;;;;;;;;;;;;;5036748;28;20254;-22
2022/07/03 01:50:32;;;;;;;;;;;;;;;;;;5036377;28;19984;-24
2022/07/03 01:53:00;;;;;;;;;;;;;;;;;;5036244;28;20000;-23
2022/07/03 01:55:26;;;;;;;;;;;;;;;;;;5036574;28;19965;-22
2022/07/03 01:57:52;;;;;;;;;;;;;;;;;;5036206;28;20328;-22
2022/07/03 02:00:18;;;;;;;;;;;;;;;;;;5036251;28;19913;-22
2022/07/03 02:02:44;;;;;;;;;;;;;;;;;;5035798;28;20046;-22
2022/07/03 02:05:10;;;;;;;;;;;;;;;;;;5036306;28;20268;-22
2022/07/03 02:07:36;;;;;;;;;;;;;;;;;;5036355;28;19909;-22
2022/07/03 02:10:02;;;;;;;;;;;;;;;;;;5036027;28;20387;-24
2022/07/03 02:12:28;;;;;;;;;;;;;;;;;;5035928;28;19909;-22
2022/07/03 02:14:54;;;;;;;;;;;;;;;;;;5035808;28;20446;-22
2022/07/03 02:17:20;;;;;;;;;;;;;;;;;;5035719;28;19909;-22
2022/07/03 02:19:46;;;;;;;;;;;;;;;;;;5036347;28;20003;-22
2022/07/03 02:22:12;;;;;;;;;;;;;;;;;;5036499;28;20288;-22
2022/07/03 02:24:38;;;;;;;;;;;;;;;;;;5035699;28;20016;-22
2022/07/03 02:27:04;;;;;;;;;;;;;;;;;;5035690;28;19948;-21
2022/07/03 02:29:31;;;;;;;;;;;;;;;;;;5035935;28;19967;-22
2022/07/03 02:31:57;;;;;;;;;;;;;;;;;;5034593;28;20003;-22
2022/07/03 02:34:23;;;;;;;;;;;;;;;;;;5035858;28;19920;-23
2022/07/03 02:36:49;;;;;;;;;;;;;;;;;;5035864;28;20048;-23
2022/07/03 02:39:15;;;;;;;;;;;;;;;;;;5035479;28;19918;-24
2022/07/03 02:41:41;;;;;;;;;;;;;;;;;;5036052;28;19944;-23
2022/07/03 02:44:07;;;;;;;;;;;;;;;;;;5035344;28;19921;-23
2022/07/03 02:46:55;;;;;;;;;;;;;;;;;;5035419;28;20374;-22
2022/07/03 02:49:20;;;;;;;;;;;;;;;;;;5035155;28;20314;-22
2022/07/03 02:51:46;;;;;;;;;;;;;;;;;;5035504;28;20379;-23
2022/07/03 02:54:12;;;;;;;;;;;;;;;;;;5035251;28;19917;-22
2022/07/03 02:56:38;;;;;;;;;;;;;;;;;;5035458;28;19934;-22
2022/07/03 02:59:04;;;;;;;;;;;;;;;;;;5035405;28;20248;-24
2022/07/03 03:01:30;;;;;;;;;;;;;;;;;;5035210;28;19920;-22
2022/07/03 03:03:56;;;;;;;;;;;;;;;;;;5034942;28;19921;-22
2022/07/03 03:06:22;;;;;;;;;;;;;;;;;;5035113;28;20223;-23
2022/07/03 03:08:48;;;;;;;;;;;;;;;;;;5034984;28;19917;-23
2022/07/03 03:11:14;;;;;;;;;;;;;;;;;;5035254;28;19909;-22
2022/07/03 03:13:40;;;;;;;;;;;;;;;;;;5034964;28;19948;-22
2022/07/03 03:16:09;;;;;;;;;;;;;;;;;;5035035;28;19913;-23
2022/07/03 03:18:35;;;;;;;;;;;;;;;;;;5035286;28;19913;-23
2022/07/03 03:21:01;;;;;;;;;;;;;;;;;;5034950;28;20245;-22
2022/07/03 03:23:27;;;;;;;;;;;;;;;;;;5034905;28;19956;-22
2022/07/03 03:25:53;;;;;;;;;;;;;;;;;;5034967;28;19909;-22
2022/07/03 03:28:19;;;;;;;;;;;;;;;;;;5035232;28;19913;-24
2022/07/03 03:30:45;;;;;;;;;;;;;;;;;;5035156;28;20354;-23
2022/07/03 03:33:11;;;;;;;;;;;;;;;;;;5034785;28;19917;-22
2022/07/03 03:35:37;;;;;;;;;;;;;;;;;;5034842;28;20268;-22
2022/07/03 03:38:03;;;;;;;;;;;;;;;;;;5034891;28;19925;-22
2022/07/03 03:40:29;;;;;;;;;;;;;;;;;;5035057;28;19923;-22
2022/07/03 03:42:55;;;;;;;;;;;;;;;;;;5034575;28;19982;-22
2022/07/03 03:45:21;;;;;;;;;;;;;;;;;;5037374;28;19917;-22
2022/07/03 03:47:47;;;;;;;;;;;;;;;;;;5038599;28;19913;-22
2022/07/03 03:50:13;;;;;;;;;;;;;;;;;;5038651;28;20004;-22
2022/07/03 03:52:39;;;;;;;;;;;;;;;;;;5038506;28;19917;-22
2022/07/03 03:55:05;;;;;;;;;;;;;;;;;;5038462;28;19928;-22
2022/07/03 03:57:31;;;;;;;;;;;;;;;;;;5038504;28;19913;-22
2022/07/03 03:59:57;;;;;;;;;;;;;;;;;;5039058;28;19913;-22
2022/07/03 04:02:23;;;;;;;;;;;;;;;;;;5038222;28;19974;-23
2022/07/03 04:04:49;;;;;;;;;;;;;;;;;;5038406;28;20237;-22
2022/07/03 04:07:15;;;;;;;;;;;;;;;;;;5038658;28;19918;-22
2022/07/03 04:09:41;;;;;;;;;;;;;;;;;;5038316;28;20260;-22
2022/07/03 04:12:07;;;;;;;;;;;;;;;;;;5038211;28;19917;-22
2022/07/03 04:14:33;;;;;;;;;;;;;;;;;;5038022;28;19995;-22
2022/07/03 04:16:59;;;;;;;;;;;;;;;;;;5038345;28;19971;-22
2022/07/03 04:19:25;;;;;;;;;;;;;;;;;;5038123;28;20299;-22
2022/07/03 04:21:51;;;;;;;;;;;;;;;;;;5038246;28;19960;-27
2022/07/03 04:24:17;;;;;;;;;;;;;;;;;;5038308;28;20229;-23
2022/07/03 04:26:43;;;;;;;;;;;;;;;;;;5038039;28;19917;-22
2022/07/03 04:29:09;;;;;;;;;;;;;;;;;;5038014;28;20267;-22
2022/07/03 04:31:35;;;;;;;;;;;;;;;;;;5038476;28;19913;-22
2022/07/03 04:34:01;;;;;;;;;;;;;;;;;;5037943;28;19921;-22
2022/07/03 04:36:28;;;;;;;;;;;;;;;;;;5038113;28;20259;-22
2022/07/03 04:38:54;;;;;;;;;;;;;;;;;;5037850;28;20360;-22
2022/07/03 04:41:20;;;;;;;;;;;;;;;;;;5038261;28;20014;-22
2022/07/03 04:43:46;;;;;;;;;;;;;;;;;;5037639;28;19914;-25
2022/07/03 04:46:12;;;;;;;;;;;;;;;;;;5038175;28;19917;-24
2022/07/03 04:48:38;;;;;;;;;;;;;;;;;;5037861;28;19910;-23
2022/07/03 04:51:04;;;;;;;;;;;;;;;;;;5037558;28;19920;-22
2022/07/03 04:53:30;;;;;;;;;;;;;;;;;;5037541;28;19913;-22
2022/07/03 04:55:56;;;;;;;;;;;;;;;;;;5036316;28;19920;-22
2022/07/03 04:58:22;;;;;;;;;;;;;;;;;;5037435;28;19945;-22
2022/07/03 05:00:48;;;;;;;;;;;;;;;;;;5037349;28;19913;-23
2022/07/03 05:03:14;;;;;;;;;;;;;;;;;;5037117;28;19918;-32
2022/07/03 05:05:40;;;;;;;;;;;;;;;;;;5037270;28;20186;-22
2022/07/03 05:08:06;;;;;;;;;;;;;;;;;;5037207;28;20004;-22
2022/07/03 05:10:32;;;;;;;;;;;;;;;;;;5037655;28;19973;-22
2022/07/03 05:12:58;;;;;;;;;;;;;;;;;;5036922;28;19990;-22
2022/07/03 05:15:24;;;;;;;;;;;;;;;;;;5037089;28;19913;-22
2022/07/03 05:17:50;;;;;;;;;;;;;;;;;;5037061;28;19910;-25
2022/07/03 05:20:25;;;;;;;;;;;;;;;;;;5037020;28;20004;-22
2022/07/03 05:22:51;;;;;;;;;;;;;;;;;;5037110;28;19917;-24
2022/07/03 05:25:17;;;;;;;;;;;;;;;;;;5037019;28;19916;-22
2022/07/03 05:27:43;;;;;;;;;;;;;;;;;;5037418;28;19913;-23
2022/07/03 05:30:09;;;;;;;;;;;;;;;;;;5036831;28;19975;-23
2022/07/03 05:32:35;;;;;;;;;;;;;;;;;;5036901;28;19909;-23
2022/07/03 05:35:01;;;;;;;;;;;;;;;;;;5037220;28;19917;-21
2022/07/03 05:37:27;;;;;;;;;;;;;;;;;;5036725;28;20411;-22
2022/07/03 05:39:53;;;;;;;;;;;;;;;;;;5036874;28;19923;-23
2022/07/03 05:42:19;;;;;;;;;;;;;;;;;;5036519;28;19917;-22
2022/07/03 05:44:45;;;;;;;;;;;;;;;;;;5036504;28;19944;-22
2022/07/03 05:47:11;;;;;;;;;;;;;;;;;;5036727;28;19909;-23
2022/07/03 05:49:37;;;;;;;;;;;;;;;;;;5036344;28;19963;-22
2022/07/03 05:52:03;;;;;;;;;;;;;;;;;;5036349;28;19909;-23
2022/07/03 05:54:29;;;;;;;;;;;;;;;;;;5036837;28;19921;-22
2022/07/03 05:56:55;;;;;;;;;;;;;;;;;;5036225;28;20341;-22
2022/07/03 05:59:21;;;;;;;;;;;;;;;;;;5036264;28;19928;-22
2022/07/03 06:01:47;;;;;;;;;;;;;;;;;;5036139;28;19909;-22
2022/07/03 06:04:13;;;;;;;;;;;;;;;;;;5036018;28;19983;-22
2022/07/03 06:06:39;;;;;;;;;;;;;;;;;;5035941;28;19909;-25
2022/07/03 06:09:05;;;;;;;;;;;;;;;;;;5036637;28;19917;-22
2022/07/03 06:11:31;;;;;;;;;;;;;;;;;;5036004;28;20364;-22
2022/07/03 06:13:57;;;;;;;;;;;;;;;;;;5035850;28;19968;-22
2022/07/03 06:16:23;;;;;;;;;;;;;;;;;;5035927;28;19952;-22
2022/07/03 06:18:49;;;;;;;;;;;;;;;;;;5036142;28;19967;-23
2022/07/03 06:21:15;;;;;;;;;;;;;;;;;;5035861;28;19948;-22
2022/07/03 06:23:41;;;;;;;;;;;;;;;;;;5036319;28;19913;-23
2022/07/03 06:26:07;;;;;;;;;;;;;;;;;;5036325;28;19909;-24
2022/07/03 06:28:33;;;;;;;;;;;;;;;;;;5035777;28;19913;-23
2022/07/03 06:30:59;;;;;;;;;;;;;;;;;;5036202;28;19924;-22
2022/07/03 06:33:25;;;;;;;;;;;;;;;;;;5035401;28;19917;-22
2022/07/03 06:35:51;;;;;;;;;;;;;;;;;;5035749;28;19920;-22
2022/07/03 06:38:17;;;;;;;;;;;;;;;;;;5035417;28;20352;-25
2022/07/03 06:40:43;;;;;;;;;;;;;;;;;;5035503;28;20066;-23
2022/07/03 06:43:09;;;;;;;;;;;;;;;;;;5035339;28;19913;-22
2022/07/03 06:45:35;;;;;;;;;;;;;;;;;;5035766;28;19920;-22
2022/07/03 06:48:01;;;;;;;;;;;;;;;;;;5036215;28;19913;-22
2022/07/03 06:50:27;;;;;;;;;;;;;;;;;;5035922;28;19917;-22
2022/07/03 06:52:53;;;;;;;;;;;;;;;;;;5035301;28;19971;-22
2022/07/03 06:55:19;;;;;;;;;;;;;;;;;;5035254;28;19917;-22
2022/07/03 06:57:45;;;;;;;;;;;;;;;;;;5035341;28;19916;-22
2022/07/03 07:00:10;;;;;;;;;;;;;;;;;;5035262;28;19913;-22
2022/07/03 07:02:36;;;;;;;;;;;;;;;;;;5034963;28;19983;-22
2022/07/03 07:05:02;;;;;;;;;;;;;;;;;;5035152;28;19913;-22
2022/07/03 07:07:28;;;;;;;;;;;;;;;;;;5035176;28;19909;-23
2022/07/03 07:09:54;;;;;;;;;;;;;;;;;;5035081;28;19920;-23
2022/07/03 07:12:20;;;;;;;;;;;;;;;;;;5035628;28;19916;-22
2022/07/03 07:14:46;;;;;;;;;;;;;;;;;;5035222;28;19932;-22
2022/07/03 07:17:12;;;;;;;;;;;;;;;;;;5035535;28;20256;-23
2022/07/03 07:19:38;;;;;;;;;;;;;;;;;;5034333;28;19924;-22
2022/07/03 07:22:04;;;;;;;;;;;;;;;;;;5034828;28;19917;-22
2022/07/03 07:24:30;;;;;;;;;;;;;;;;;;5035134;28;19913;-22
2022/07/03 07:26:56;;;;;;;;;;;;;;;;;;5034863;28;19923;-22
2022/07/03 07:29:22;;;;;;;;;;;;;;;;;;5033989;28;19917;-22
2022/07/03 07:31:48;;;;;;;;;;;;;;;;;;5034843;28;20304;-22
2022/07/03 07:34:14;;;;;;;;;;;;;;;;;;5034792;28;19974;-23
2022/07/03 07:36:40;;;;;;;;;;;;;;;;;;5035423;28;19991;-23
2022/07/03 07:39:06;;;;;;;;;;;;;;;;;;5035084;28;19913;-22
2022/07/03 07:41:32;;;;;;;;;;;;;;;;;;5035121;28;20253;-23
2022/07/03 07:44:00;;;;;;;;;;;;;;;;;;5034989;28;20006;-24
2022/07/03 07:46:26;;;;;;;;;;;;;;;;;;5035115;28;20002;-23
2022/07/03 07:48:52;;;;;;;;;;;;;;;;;;5034748;28;19913;-22
2022/07/03 07:51:18;;;;;;;;;;;;;;;;;;5034978;28;19913;-25
2022/07/03 07:53:44;;;;;;;;;;;;;;;;;;5034614;28;19964;-22
2022/07/03 07:56:10;;;;;;;;;;;;;;;;;;5034728;28;20115;-22
2022/07/03 07:58:36;;;;;;;;;;;;;;;;;;5035256;28;20344;-22
2022/07/03 08:06:31;;;;;;;;;;;;;;;;;;5034648;28;19920;-23
2022/07/03 08:08:57;;;;;;;;;;;;;;;;;;5034453;28;20003;-22
2022/07/03 08:11:23;;;;;;;;;;;;;;;;;;5034971;28;19917;-22
2022/07/03 08:13:49;;;;;;;;;;;;;;;;;;5034317;28;20406;-22
2022/07/03 08:16:17;;;;;;;;;;;;;;;;;;5034467;28;19909;-23
2022/07/03 08:18:43;;;;;;;;;;;;;;;;;;5034740;28;20233;-23
2022/07/03 08:21:09;;;;;;;;;;;;;;;;;;5034406;28;19966;-22
2022/07/03 08:23:35;;;;;;;;;;;;;;;;;;5034885;28;19913;-22
2022/07/03 08:26:01;;;;;;;;;;;;;;;;;;5034406;28;19917;-22
2022/07/03 08:28:27;;;;;;;;;;;;;;;;;;5034397;28;20351;-22
2022/07/03 08:30:53;;;;;;;;;;;;;;;;;;5036355;28;19909;-22
2022/07/03 08:33:19;;;;;;;;;;;;;;;;;;5037773;28;19913;-22
2022/07/03 08:35:45;;;;;;;;;;;;;;;;;;5037801;28;19909;-22
2022/07/03 08:38:10;;;;;;;;;;;;;;;;;;5037993;28;19913;-22
2022/07/03 08:40:36;;;;;;;;;;;;;;;;;;5037717;28;19917;-22
2022/07/03 08:43:03;;;;;;;;;;;;;;;;;;5037743;28;20182;-22
2022/07/03 08:45:29;;;;;;;;;;;;;;;;;;5037727;28;19921;-22
2022/07/03 08:47:55;;;;;;;;;;;;;;;;;;5037638;28;19909;-21
2022/07/03 08:50:21;;;;;;;;;;;;;;;;;;5037742;28;20020;-22
2022/07/03 08:52:47;;;;;;;;;;;;;;;;;;5037988;28;20363;-23
2022/07/03 08:55:13;;;;;;;;;;;;;;;;;;5037419;28;20019;-22
2022/07/03 08:57:40;;;;;;;;;;;;;;;;;;5037512;28;20374;-22
2022/07/03 09:00:06;;;;;;;;;;;;;;;;;;5037692;28;19924;-24
2022/07/03 09:02:32;;;;;;;;;;;;;;;;;;5037099;28;20252;-23
2022/07/03 09:04:58;;;;;;;;;;;;;;;;;;5037627;28;19913;-23
2022/07/03 09:07:24;;;;;;;;;;;;;;;;;;5037332;28;20394;-22
2022/07/03 09:09:50;;;;;;;;;;;;;;;;;;5037272;28;19963;-22
2022/07/03 09:12:16;;;;;;;;;;;;;;;;;;5037153;28;20392;-22
2022/07/03 09:14:42;;;;;;;;;;;;;;;;;;5037090;28;19925;-22
2022/07/03 09:17:08;;;;;;;;;;;;;;;;;;5037112;28;19920;-22
2022/07/03 09:19:34;;;;;;;;;;;;;;;;;;5037354;28;19913;-22
2022/07/03 09:22:00;;;;;;;;;;;;;;;;;;5037227;28;19967;-25
2022/07/03 09:24:26;;;;;;;;;;;;;;;;;;5036963;28;19936;-22
2022/07/03 09:26:52;;;;;;;;;;;;;;;;;;5037202;28;20003;-22
2022/07/03 09:29:18;;;;;;;;;;;;;;;;;;5037127;28;19928;-22
2022/07/03 09:31:44;;;;;;;;;;;;;;;;;;5037046;28;19909;-22
2022/07/03 09:34:10;;;;;;;;;;;;;;;;;;5036626;28;20232;-22
2022/07/03 09:36:36;;;;;;;;;;;;;;;;;;5037025;28;19909;-23
2022/07/03 09:39:02;;;;;;;;;;;;;;;;;;5036726;28;19917;-23
2022/07/03 09:41:28;;;;;;;;;;;;;;;;;;5036883;28;20410;-22
2022/07/03 09:43:54;;;;;;;;;;;;;;;;;;5036254;28;19933;-22
2022/07/03 09:46:20;;;;;;;;;;;;;;;;;;5036755;28;19909;-22
2022/07/03 09:48:46;;;;;;;;;;;;;;;;;;5036454;28;19944;-22
2022/07/03 09:51:12;;;;;;;;;;;;;;;;;;5036396;28;19917;-23
2022/07/03 09:53:38;;;;;;;;;;;;;;;;;;5036286;28;19914;-22
2022/07/03 09:56:03;;;;;;;;;;;;;;;;;;5036636;28;19925;-23
2022/07/03 09:58:31;;;;;;;;;;;;;;;;;;5035524;28;20209;-22
2022/07/03 10:00:57;;;;;;;;;;;;;;;;;;5036805;28;19967;-22
2022/07/03 10:03:23;;;;;;;;;;;;;;;;;;5036027;28;20283;-22
2022/07/03 10:05:49;;;;;;;;;;;;;;;;;;5036705;28;20317;-22
2022/07/03 10:08:15;;;;;;;;;;;;;;;;;;5036395;28;19920;-24
2022/07/03 10:10:41;;;;;;;;;;;;;;;;;;5036345;28;19959;-23
2022/07/03 10:13:07;;;;;;;;;;;;;;;;;;5035889;28;19909;-22
2022/07/03 10:15:37;;;;;;;;;;;;;;;;;;5036215;28;19962;-22
2022/07/03 10:18:04;;;;;;;;;;;;;;;;;;5035937;28;20367;-22
2022/07/03 10:20:30;;;;;;;;;;;;;;;;;;5035898;28;19909;-22
2022/07/03 10:22:56;;;;;;;;;;;;;;;;;;5035812;28;19913;-23
2022/07/03 10:25:22;;;;;;;;;;;;;;;;;;5035796;28;20059;-22
2022/07/03 10:27:48;;;;;;;;;;;;;;;;;;5035743;28;20299;-22
2022/07/03 10:30:14;;;;;;;;;;;;;;;;;;5035995;28;19913;-22
2022/07/03 10:32:40;;;;;;;;;;;;;;;;;;5035990;28;20359;-23
2022/07/03 10:35:05;;;;;;;;;;;;;;;;;;5036131;28;19924;-22
2022/07/03 10:37:31;;;;;;;;;;;;;;;;;;5036120;28;20299;-23
2022/07/03 10:44:45;;;;;;;;;;;;;;;;;;5035591;28;20017;-22
2022/07/03 10:45:28;;;;;;;;;;;;;;;;;;5035492;28;20375;-22
2022/07/03 10:47:54;;;;;;;;;;;;;;;;;;5035451;28;19909;-23
2022/07/03 10:50:20;;;;;;;;;;;;;;;;;;5035651;28;19912;-22
2022/07/03 10:52:46;;;;;;;;;;;;;;;;;;5035386;28;19909;-22
2022/07/03 10:55:12;;;;;;;;;;;;;;;;;;5034316;28;19931;-23
2022/07/03 10:57:38;;;;;;;;;;;;;;;;;;5034399;28;19977;-22
2022/07/03 11:00:05;;;;;;;;;;;;;;;;;;5035257;28;19920;-22
2022/07/03 11:02:31;;;;;;;;;;;;;;;;;;5034918;28;19913;-22
2022/07/03 11:05:00;;;;;;;;;;;;;;;;;;5035132;28;19917;-22
2022/07/03 11:07:26;;;;;;;;;;;;;;;;;;5035446;28;20228;-23
2022/07/03 11:09:52;;;;;;;;;;;;;;;;;;5035140;28;20251;-24
2022/07/03 11:12:18;;;;;;;;;;;;;;;;;;5035320;28;19952;-24
2022/07/03 11:14:44;;;;;;;;;;;;;;;;;;5035002;28;19933;-22
2022/07/03 11:17:10;;;;;;;;;;;;;;;;;;5034998;28;19909;-23
2022/07/03 11:19:36;;;;;;;;;;;;;;;;;;5034949;28;20000;-22
2022/07/03 11:22:02;;;;;;;;;;;;;;;;;;5035151;28;19948;-22
2022/07/03 11:24:28;;;;;;;;;;;;;;;;;;5034915;28;19917;-22
2022/07/03 11:26:54;;;;;;;;;;;;;;;;;;5034884;28;19916;-24
2022/07/03 11:29:20;;;;;;;;;;;;;;;;;;5034859;28;19920;-24
2022/07/03 11:31:46;;;;;;;;;;;;;;;;;;5034828;28;20044;-22
2022/07/03 11:34:12;;;;;;;;;;;;;;;;;;5035079;28;19921;-24
2022/07/03 11:36:38;;;;;;;;;;;;;;;;;;5034872;28;19910;-22
2022/07/03 11:39:04;;;;;;;;;;;;;;;;;;5035360;28;20004;-22
2022/07/03 11:41:30;;;;;;;;;;;;;;;;;;5035107;28;19963;-22
2022/07/03 11:43:56;;;;;;;;;;;;;;;;;;5035046;28;19913;-22
2022/07/03 11:46:22;;;;;;;;;;;;;;;;;;5035084;28;20056;-22
2022/07/03 11:48:48;;;;;;;;;;;;;;;;;;5034759;28;19989;-22
2022/07/03 11:51:14;;;;;;;;;;;;;;;;;;5034768;28;19940;-23
2022/07/03 11:53:40;;;;;;;;;;;;;;;;;;5034612;28;20007;-23
2022/07/03 11:56:06;;;;;;;;;;;;;;;;;;5034664;28;19910;-22
2022/07/03 11:58:32;;;;;;;;;;;;;;;;;;5035032;28;19949;-22
2022/07/03 12:00:58;;;;;;;;;;;;;;;;;;5034901;28;20345;-23
2022/07/03 12:03:24;;;;;;;;;;;;;;;;;;5034367;28;19925;-22
2022/07/03 12:05:50;;;;;;;;;;;;;;;;;;5036912;28;19920;-22
2022/07/03 12:08:16;;;;;;;;;;;;;;;;;;5038450;28;19916;-23
2022/07/03 12:10:42;;;;;;;;;;;;;;;;;;5038631;28;19917;-23
2022/07/03 12:13:08;;;;;;;;;;;;;;;;;;5038254;28;19920;-23
2022/07/03 12:15:34;;;;;;;;;;;;;;;;;;5038087;28;20256;-23
2022/07/03 12:18:00;;;;;;;;;;;;;;;;;;5038123;28;19920;-22
2022/07/03 12:20:26;;;;;;;;;;;;;;;;;;5038668;28;19914;-22
2022/07/03 12:22:52;;;;;;;;;;;;;;;;;;5038042;28;19948;-22
2022/07/03 12:25:18;;;;;;;;;;;;;;;;;;5038106;28;19960;-23
2022/07/03 12:27:44;;;;;;;;;;;;;;;;;;5038104;28;19921;-22
2022/07/03 12:30:10;;;;;;;;;;;;;;;;;;5037971;28;19913;-22
2022/07/03 12:32:36;;;;;;;;;;;;;;;;;;5038504;28;19915;-22
2022/07/03 12:35:03;;;;;;;;;;;;;;;;;;5037806;28;19925;-23
2022/07/03 12:37:29;;;;;;;;;;;;;;;;;;5037867;28;19920;-22
2022/07/03 12:39:55;;;;;;;;;;;;;;;;;;5038340;28;19924;-22
2022/07/03 12:42:21;;;;;;;;;;;;;;;;;;5037745;28;20245;-22
2022/07/03 12:44:47;;;;;;;;;;;;;;;;;;5037666;28;20368;-22
2022/07/03 12:47:13;;;;;;;;;;;;;;;;;;5036718;28;19909;-22
2022/07/03 12:49:39;;;;;;;;;;;;;;;;;;5037936;28;19949;-23
2022/07/03 12:52:05;;;;;;;;;;;;;;;;;;5037585;28;20256;-22
2022/07/03 12:54:31;;;;;;;;;;;;;;;;;;5037384;28;20004;-23
2022/07/03 12:56:57;;;;;;;;;;;;;;;;;;5037507;28;19910;-23
2022/07/03 12:59:23;;;;;;;;;;;;;;;;;;5037362;28;19917;-22
2022/07/03 13:01:49;;;;;;;;;;;;;;;;;;5037593;28;19909;-22
2022/07/03 13:04:15;;;;;;;;;;;;;;;;;;5037284;28;19975;-23
2022/07/03 13:06:42;;;;;;;;;;;;;;;;;;5037325;28;20000;-22
2022/07/03 13:09:08;;;;;;;;;;;;;;;;;;5037239;28;19916;-22
2022/07/03 13:11:34;;;;;;;;;;;;;;;;;;5036185;28;19913;-22
2022/07/03 13:14:00;;;;;;;;;;;;;;;;;;5036982;28;19957;-22
2022/07/03 13:16:26;;;;;;;;;;;;;;;;;;5036550;28;19909;-22
2022/07/03 13:18:52;;;;;;;;;;;;;;;;;;5037281;28;19917;-23
2022/07/03 13:21:18;;;;;;;;;;;;;;;;;;5037346;28;20062;-22
2022/07/03 13:23:44;;;;;;;;;;;;;;;;;;5037224;28;19920;-22
2022/07/03 13:26:10;;;;;;;;;;;;;;;;;;5036983;28;19920;-22
2022/07/03 13:28:36;;;;;;;;;;;;;;;;;;5037465;28;19913;-23
2022/07/03 13:31:04;;;;;;;;;;;;;;;;;;5036882;28;20004;-23
2022/07/03 13:33:30;;;;;;;;;;;;;;;;;;5036709;28;19971;-22
2022/07/03 13:35:56;;;;;;;;;;;;;;;;;;5037084;28;19917;-22
2022/07/03 13:38:21;;;;;;;;;;;;;;;;;;5036795;28;20008;-22
2022/07/03 13:40:47;;;;;;;;;;;;;;;;;;5036630;28;19932;-22
2022/07/03 13:43:13;;;;;;;;;;;;;;;;;;5036581;28;19909;-22
2022/07/03 13:45:39;;;;;;;;;;;;;;;;;;5036578;28;19970;-22
2022/07/03 13:48:06;;;;;;;;;;;;;;;;;;5037164;28;19916;-23
2022/07/03 13:50:32;;;;;;;;;;;;;;;;;;5036502;28;19940;-23
2022/07/03 13:52:58;;;;;;;;;;;;;;;;;;5036723;28;20276;-23
2022/07/03 13:55:24;;;;;;;;;;;;;;;;;;5036342;28;19917;-22
2022/07/03 13:57:50;;;;;;;;;;;;;;;;;;5036378;28;20249;-23
2022/07/03 14:00:17;;;;;;;;;;;;;;;;;;5036331;28;19924;-23
2022/07/03 14:02:43;;;;;;;;;;;;;;;;;;5035992;28;19913;-22
2022/07/03 14:05:09;;;;;;;;;;;;;;;;;;5036233;28;19999;-23
2022/07/03 14:07:35;;;;;;;;;;;;;;;;;;5036169;28;19959;-23
2022/07/03 14:10:01;;;;;;;;;;;;;;;;;;5036642;28;19924;-22
2022/07/03 14:12:27;;;;;;;;;;;;;;;;;;5036063;28;19910;-23
2022/07/03 14:14:53;;;;;;;;;;;;;;;;;;5036013;28;19975;-22
2022/07/03 14:17:19;;;;;;;;;;;;;;;;;;5036296;28;19964;-22
2022/07/03 14:19:45;;;;;;;;;;;;;;;;;;5036004;28;20008;-22
2022/07/03 14:22:11;;;;;;;;;;;;;;;;;;5035880;28;20327;-23
2022/07/03 14:24:37;;;;;;;;;;;;;;;;;;5036142;28;20252;-22
2022/07/03 14:32:32;;;;;;;;;;;;;;;;;;5035770;28;20267;-22
2022/07/03 14:34:59;;;;;;;;;;;;;;;;;;5035857;28;19944;-24
2022/07/03 14:37:25;;;;;;;;;;;;;;;;;;5035674;28;19965;-22
2022/07/03 14:39:51;;;;;;;;;;;;;;;;;;5036132;28;19913;-22
2022/07/03 14:42:17;;;;;;;;;;;;;;;;;;5035439;28;19920;-22
2022/07/03 14:44:43;;;;;;;;;;;;;;;;;;5035409;28;20225;-22
2022/07/03 14:47:09;;;;;;;;;;;;;;;;;;5035481;28;19920;-23
2022/07/03 14:49:35;;;;;;;;;;;;;;;;;;5035405;28;19913;-22
2022/07/03 14:52:00;;;;;;;;;;;;;;;;;;5035309;28;20062;-23
2022/07/03 14:54:26;;;;;;;;;;;;;;;;;;5035332;28;19917;-22
2022/07/03 14:56:52;;;;;;;;;;;;;;;;;;5035827;28;19913;-22
2022/07/03 14:59:18;;;;;;;;;;;;;;;;;;5035312;28;19952;-22
2022/07/03 15:01:44;;;;;;;;;;;;;;;;;;5035201;28;19916;-23
2022/07/03 15:04:10;;;;;;;;;;;;;;;;;;5034986;28;20297;-23
2022/07/03 15:06:36;;;;;;;;;;;;;;;;;;5035089;28;19951;-22
2022/07/03 15:09:02;;;;;;;;;;;;;;;;;;5035207;28;19975;-22
2022/07/03 15:14:13;;;;;;;;;;;;;;;;;;5035067;28;19928;-22
2022/07/03 15:16:40;;;;;;;;;;;;;;;;;;5035012;28;20348;-23
2022/07/03 15:19:06;;;;;;;;;;;;;;;;;;5035520;28;19925;-22
2022/07/03 15:21:32;;;;;;;;;;;;;;;;;;5034951;28;19913;-24
2022/07/03 15:23:58;;;;;;;;;;;;;;;;;;5035050;28;20356;-24
2022/07/03 15:26:24;;;;;;;;;;;;;;;;;;5034922;28;19913;-23
2022/07/03 15:28:50;;;;;;;;;;;;;;;;;;5034972;28;20341;-22
2022/07/03 15:31:15;;;;;;;;;;;;;;;;;;5035485;28;19952;-22
2022/07/03 15:33:41;;;;;;;;;;;;;;;;;;5034825;28;20392;-22
2022/07/03 15:36:08;;;;;;;;;;;;;;;;;;5035177;28;19924;-22
2022/07/03 15:38:34;;;;;;;;;;;;;;;;;;5035465;28;20210;-23
2022/07/03 15:41:00;;;;;;;;;;;;;;;;;;5037004;28;19919;-24
2022/07/03 15:43:26;;;;;;;;;;;;;;;;;;5039090;28;19935;-23
2022/07/03 15:45:52;;;;;;;;;;;;;;;;;;5039108;28;19913;-23
2022/07/03 15:48:18;;;;;;;;;;;;;;;;;;5039147;28;20230;-22
2022/07/03 15:50:44;;;;;;;;;;;;;;;;;;5039001;28;19924;-23
2022/07/03 15:53:10;;;;;;;;;;;;;;;;;;5038663;28;19909;-23
2022/07/03 15:55:36;;;;;;;;;;;;;;;;;;5038587;28;20070;-23
2022/07/03 15:58:02;;;;;;;;;;;;;;;;;;5038654;28;19917;-22
2022/07/03 16:00:28;;;;;;;;;;;;;;;;;;5038825;28;20253;-22
2022/07/03 16:02:54;;;;;;;;;;;;;;;;;;5038290;28;19917;-22
2022/07/03 16:05:20;;;;;;;;;;;;;;;;;;5038495;28;19967;-22
2022/07/03 16:07:46;;;;;;;;;;;;;;;;;;5038744;28;19919;-23
2022/07/03 16:10:12;;;;;;;;;;;;;;;;;;5038682;28;19917;-22
2022/07/03 16:12:38;;;;;;;;;;;;;;;;;;5038331;28;19909;-22
2022/07/03 16:15:04;;;;;;;;;;;;;;;;;;5037242;28;19931;-25
2022/07/03 16:17:33;;;;;;;;;;;;;;;;;;5038222;28;19918;-22
2022/07/03 16:19:59;;;;;;;;;;;;;;;;;;5038215;28;19912;-23
2022/07/03 16:22:25;;;;;;;;;;;;;;;;;;5038097;28;19920;-22
2022/07/03 16:24:50;;;;;;;;;;;;;;;;;;5038686;28;19959;-22
2022/07/03 16:27:18;;;;;;;;;;;;;;;;;;5038084;28;19909;-22
2022/07/03 16:29:44;;;;;;;;;;;;;;;;;;5038007;28;19913;-23
2022/07/03 16:32:11;;;;;;;;;;;;;;;;;;5037981;28;19920;-23
2022/07/03 16:34:36;;;;;;;;;;;;;;;;;;5038112;28;20020;-23
2022/07/03 16:37:02;;;;;;;;;;;;;;;;;;5038089;28;19941;-23
2022/07/03 16:39:28;;;;;;;;;;;;;;;;;;5037917;28;19909;-23
2022/07/03 16:41:54;;;;;;;;;;;;;;;;;;5038230;28;19913;-22
2022/07/03 16:44:24;;;;;;;;;;;;;;;;;;5037695;28;20020;-23
2022/07/03 16:46:50;;;;;;;;;;;;;;;;;;5037625;28;19920;-22
2022/07/03 16:49:16;;;;;;;;;;;;;;;;;;5037645;28;19909;-22
2022/07/03 16:51:42;;;;;;;;;;;;;;;;;;5037748;28;19917;-24
2022/07/03 16:54:08;;;;;;;;;;;;;;;;;;5037374;28;19943;-23